sensor_id;sensor_type;location;lat;lon;timestamp;temperature;humidity
44723;DHT22;30451;48.638;10.624;2023-04-15T00:00:26;24.70;44.70
44723;DHT22;30451;48.638;10.624;2023-04-15T00:02:53;24.70;44.70
44723;DHT22;30451;48.638;10.624;2023-04-15T00:05:19;24.70;45.20
44723;DHT22;30451;48.638;10.624;2023-04-15T00:07:45;24.70;44.70
44723;DHT22;30451;48.638;10.624;2023-04-15T00:10:12;24.70;44.70
44723;DHT22;30451;48.638;10.624;2023-04-15T00:12:38;24.70;44.70
44723;DHT22;30451;48.638;10.624;2023-04-15T00:15:05;24.70;44.70
44723;DHT22;30451;48.638;10.624;2023-04-15T00:17:31;24.70;44.70
44723;DHT22;30451;48.638;10.624;2023-04-15T00:19:56;24.70;44.70
44723;DHT22;30451;48.638;10.624;2023-04-15T00:22:24;24.70;44.70
44723;DHT22;30451;48.638;10.624;2023-04-15T00:24:52;24.70;44.70
44723;DHT22;30451;48.638;10.624;2023-04-15T00:27:17;24.70;44.70
44723;DHT22;30451;48.638;10.624;2023-04-15T00:29:43;24.70;44.70
44723;DHT22;30451;48.638;10.624;2023-04-15T00:32:09;24.70;44.70
44723;DHT22;30451;48.638;10.624;2023-04-15T00:34:35;24.70;44.70
44723;DHT22;30451;48.638;10.624;2023-04-15T00:37:01;24.70;44.60
44723;DHT22;30451;48.638;10.624;2023-04-15T00:39:27;24.70;44.70
44723;DHT22;30451;48.638;10.624;2023-04-15T00:41:52;24.70;44.70
44723;DHT22;30451;48.638;10.624;2023-04-15T00:44:19;24.70;44.60
44723;DHT22;30451;48.638;10.624;2023-04-15T00:46:44;24.60;44.60
44723;DHT22;30451;48.638;10.624;2023-04-15T00:49:11;24.70;44.70
44723;DHT22;30451;48.638;10.624;2023-04-15T00:51:37;24.70;44.70
44723;DHT22;30451;48.638;10.624;2023-04-15T00:54:04;24.60;44.70
44723;DHT22;30451;48.638;10.624;2023-04-15T00:56:30;24.60;44.60
44723;DHT22;30451;48.638;10.624;2023-04-15T00:59:00;24.60;44.70
44723;DHT22;30451;48.638;10.624;2023-04-15T01:01:26;24.50;44.70
44723;DHT22;30451;48.638;10.624;2023-04-15T01:03:55;24.50;44.70
44723;DHT22;30451;48.638;10.624;2023-04-15T01:06:21;24.50;44.70
44723;DHT22;30451;48.638;10.624;2023-04-15T01:08:47;24.50;44.70
44723;DHT22;30451;48.638;10.624;2023-04-15T01:11:13;24.50;44.70
44723;DHT22;30451;48.638;10.624;2023-04-15T01:13:40;24.40;44.70
44723;DHT22;30451;48.638;10.624;2023-04-15T01:16:06;24.40;44.70
44723;DHT22;30451;48.638;10.624;2023-04-15T01:18:33;24.40;44.70
44723;DHT22;30451;48.638;10.624;2023-04-15T01:21:00;24.40;44.80
44723;DHT22;30451;48.638;10.624;2023-04-15T01:23:27;24.40;44.80
44723;DHT22;30451;48.638;10.624;2023-04-15T01:25:53;24.30;44.70
44723;DHT22;30451;48.638;10.624;2023-04-15T01:28:19;24.30;44.80
44723;DHT22;30451;48.638;10.624;2023-04-15T01:30:44;24.30;44.80
44723;DHT22;30451;48.638;10.624;2023-04-15T01:33:10;24.30;44.80
44723;DHT22;30451;48.638;10.624;2023-04-15T01:35:36;24.30;44.80
44723;DHT22;30451;48.638;10.624;2023-04-15T01:38:07;24.20;44.80
44723;DHT22;30451;48.638;10.624;2023-04-15T01:40:34;24.20;44.80
44723;DHT22;30451;48.638;10.624;2023-04-15T01:43:00;24.20;44.90
44723;DHT22;30451;48.638;10.624;2023-04-15T01:45:26;24.20;44.90
44723;DHT22;30451;48.638;10.624;2023-04-15T01:47:52;24.10;44.90
44723;DHT22;30451;48.638;10.624;2023-04-15T01:50:18;24.10;44.90
44723;DHT22;30451;48.638;10.624;2023-04-15T01:52:45;24.10;44.90
44723;DHT22;30451;48.638;10.624;2023-04-15T01:55:16;24.10;45.20
44723;DHT22;30451;48.638;10.624;2023-04-15T01:57:42;24.10;45.00
44723;DHT22;30451;48.638;10.624;2023-04-15T02:00:08;24.10;45.00
44723;DHT22;30451;48.638;10.624;2023-04-15T02:02:34;24.00;45.00
44723;DHT22;30451;48.638;10.624;2023-04-15T02:05:00;24.00;45.10
44723;DHT22;30451;48.638;10.624;2023-04-15T02:07:26;24.00;45.10
44723;DHT22;30451;48.638;10.624;2023-04-15T02:09:53;24.00;45.10
44723;DHT22;30451;48.638;10.624;2023-04-15T02:12:18;23.90;45.10
44723;DHT22;30451;48.638;10.624;2023-04-15T02:14:44;23.90;45.10
44723;DHT22;30451;48.638;10.624;2023-04-15T02:17:10;23.90;45.20
44723;DHT22;30451;48.638;10.624;2023-04-15T02:19:36;23.90;45.20
44723;DHT22;30451;48.638;10.624;2023-04-15T02:22:02;23.90;45.20
44723;DHT22;30451;48.638;10.624;2023-04-15T02:24:29;23.90;45.20
44723;DHT22;30451;48.638;10.624;2023-04-15T02:26:55;23.80;45.20
44723;DHT22;30451;48.638;10.624;2023-04-15T02:29:21;23.80;45.20
44723;DHT22;30451;48.638;10.624;2023-04-15T02:31:48;23.80;45.20
44723;DHT22;30451;48.638;10.624;2023-04-15T02:34:13;23.70;45.20
44723;DHT22;30451;48.638;10.624;2023-04-15T02:36:39;23.70;45.30
44723;DHT22;30451;48.638;10.624;2023-04-15T02:39:05;23.70;45.30
44723;DHT22;30451;48.638;10.624;2023-04-15T02:41:31;23.70;45.30
44723;DHT22;30451;48.638;10.624;2023-04-15T02:43:57;23.70;45.30
44723;DHT22;30451;48.638;10.624;2023-04-15T02:46:22;23.70;45.30
44723;DHT22;30451;48.638;10.624;2023-04-15T02:48:49;23.60;45.30
44723;DHT22;30451;48.638;10.624;2023-04-15T02:51:19;23.60;45.30
44723;DHT22;30451;48.638;10.624;2023-04-15T02:53:46;23.60;45.40
44723;DHT22;30451;48.638;10.624;2023-04-15T02:56:12;23.60;45.40
44723;DHT22;30451;48.638;10.624;2023-04-15T02:58:39;23.60;45.40
44723;DHT22;30451;48.638;10.624;2023-04-15T03:01:05;23.60;45.40
44723;DHT22;30451;48.638;10.624;2023-04-15T03:03:33;23.50;45.40
44723;DHT22;30451;48.638;10.624;2023-04-15T03:05:58;23.50;45.40
44723;DHT22;30451;48.638;10.624;2023-04-15T03:08:24;23.50;45.40
44723;DHT22;30451;48.638;10.624;2023-04-15T03:10:50;23.50;45.40
44723;DHT22;30451;48.638;10.624;2023-04-15T03:13:17;23.50;45.40
44723;DHT22;30451;48.638;10.624;2023-04-15T03:15:45;23.50;45.40
44723;DHT22;30451;48.638;10.624;2023-04-15T03:18:11;23.50;45.50
44723;DHT22;30451;48.638;10.624;2023-04-15T03:20:36;23.40;45.40
44723;DHT22;30451;48.638;10.624;2023-04-15T03:23:02;23.40;45.50
44723;DHT22;30451;48.638;10.624;2023-04-15T03:25:27;23.40;45.50
44723;DHT22;30451;48.638;10.624;2023-04-15T03:27:53;23.40;45.50
44723;DHT22;30451;48.638;10.624;2023-04-15T03:30:19;23.40;45.50
44723;DHT22;30451;48.638;10.624;2023-04-15T03:32:44;23.40;45.50
44723;DHT22;30451;48.638;10.624;2023-04-15T03:35:10;23.40;45.50
44723;DHT22;30451;48.638;10.624;2023-04-15T03:37:36;23.30;45.50
44723;DHT22;30451;48.638;10.624;2023-04-15T03:40:01;23.40;45.60
44723;DHT22;30451;48.638;10.624;2023-04-15T03:42:27;23.30;45.50
44723;DHT22;30451;48.638;10.624;2023-04-15T03:44:53;23.30;45.60
44723;DHT22;30451;48.638;10.624;2023-04-15T03:47:18;23.30;45.60
44723;DHT22;30451;48.638;10.624;2023-04-15T03:49:44;23.30;45.60
44723;DHT22;30451;48.638;10.624;2023-04-15T03:52:09;23.30;45.70
44723;DHT22;30451;48.638;10.624;2023-04-15T03:54:35;23.20;45.60
44723;DHT22;30451;48.638;10.624;2023-04-15T03:57:01;23.20;45.60
44723;DHT22;30451;48.638;10.624;2023-04-15T03:59:26;23.20;45.60
44723;DHT22;30451;48.638;10.624;2023-04-15T04:01:52;23.20;45.70
44723;DHT22;30451;48.638;10.624;2023-04-15T04:04:17;23.20;45.70
44723;DHT22;30451;48.638;10.624;2023-04-15T04:06:43;23.20;45.70
44723;DHT22;30451;48.638;10.624;2023-04-15T04:09:09;23.20;46.30
44723;DHT22;30451;48.638;10.624;2023-04-15T04:11:34;23.20;46.30
44723;DHT22;30451;48.638;10.624;2023-04-15T04:14:01;23.10;45.70
44723;DHT22;30451;48.638;10.624;2023-04-15T04:16:27;23.10;45.70
44723;DHT22;30451;48.638;10.624;2023-04-15T04:18:53;23.10;45.70
44723;DHT22;30451;48.638;10.624;2023-04-15T04:21:18;23.10;45.80
44723;DHT22;30451;48.638;10.624;2023-04-15T04:23:45;23.10;45.80
44723;DHT22;30451;48.638;10.624;2023-04-15T04:26:11;23.10;45.80
44723;DHT22;30451;48.638;10.624;2023-04-15T04:28:36;23.10;45.80
44723;DHT22;30451;48.638;10.624;2023-04-15T04:31:05;23.00;45.80
44723;DHT22;30451;48.638;10.624;2023-04-15T04:33:32;23.00;46.40
44723;DHT22;30451;48.638;10.624;2023-04-15T04:35:57;23.00;45.90
44723;DHT22;30451;48.638;10.624;2023-04-15T04:38:23;23.00;45.90
44723;DHT22;30451;48.638;10.624;2023-04-15T04:40:49;23.00;45.90
44723;DHT22;30451;48.638;10.624;2023-04-15T04:43:14;23.00;45.90
44723;DHT22;30451;48.638;10.624;2023-04-15T04:45:40;23.00;45.90
44723;DHT22;30451;48.638;10.624;2023-04-15T04:48:06;23.00;45.90
44723;DHT22;30451;48.638;10.624;2023-04-15T04:50:33;23.00;46.00
44723;DHT22;30451;48.638;10.624;2023-04-15T04:53:00;22.90;45.90
44723;DHT22;30451;48.638;10.624;2023-04-15T04:55:25;22.90;45.90
44723;DHT22;30451;48.638;10.624;2023-04-15T04:57:51;22.90;45.90
44723;DHT22;30451;48.638;10.624;2023-04-15T05:00:17;22.90;46.00
44723;DHT22;30451;48.638;10.624;2023-04-15T05:02:43;22.90;45.90
44723;DHT22;30451;48.638;10.624;2023-04-15T05:05:10;22.90;46.00
44723;DHT22;30451;48.638;10.624;2023-04-15T05:07:36;22.90;45.90
44723;DHT22;30451;48.638;10.624;2023-04-15T05:10:03;22.90;46.00
44723;DHT22;30451;48.638;10.624;2023-04-15T05:12:28;22.90;46.00
44723;DHT22;30451;48.638;10.624;2023-04-15T05:14:54;22.90;46.00
44723;DHT22;30451;48.638;10.624;2023-04-15T05:17:19;22.80;45.90
44723;DHT22;30451;48.638;10.624;2023-04-15T05:19:45;22.80;45.90
44723;DHT22;30451;48.638;10.624;2023-04-15T05:22:11;22.80;45.90
44723;DHT22;30451;48.638;10.624;2023-04-15T05:24:36;22.80;45.90
44723;DHT22;30451;48.638;10.624;2023-04-15T05:27:02;22.80;45.90
44723;DHT22;30451;48.638;10.624;2023-04-15T05:29:28;22.80;45.90
44723;DHT22;30451;48.638;10.624;2023-04-15T05:31:54;22.80;45.90
44723;DHT22;30451;48.638;10.624;2023-04-15T05:34:19;22.80;45.90
44723;DHT22;30451;48.638;10.624;2023-04-15T05:36:45;22.80;45.90
44723;DHT22;30451;48.638;10.624;2023-04-15T05:39:10;22.70;45.90
44723;DHT22;30451;48.638;10.624;2023-04-15T05:41:36;22.70;45.90
44723;DHT22;30451;48.638;10.624;2023-04-15T05:44:02;22.70;45.90
44723;DHT22;30451;48.638;10.624;2023-04-15T05:46:28;22.70;45.90
44723;DHT22;30451;48.638;10.624;2023-04-15T05:48:53;22.70;45.90
44723;DHT22;30451;48.638;10.624;2023-04-15T05:51:19;22.70;45.90
44723;DHT22;30451;48.638;10.624;2023-04-15T05:53:45;22.70;45.90
44723;DHT22;30451;48.638;10.624;2023-04-15T05:56:10;22.70;45.90
44723;DHT22;30451;48.638;10.624;2023-04-15T05:58:36;22.70;45.90
44723;DHT22;30451;48.638;10.624;2023-04-15T06:01:02;22.70;45.90
44723;DHT22;30451;48.638;10.624;2023-04-15T06:03:28;22.60;45.80
44723;DHT22;30451;48.638;10.624;2023-04-15T06:05:53;22.70;45.90
44723;DHT22;30451;48.638;10.624;2023-04-15T06:08:19;22.60;45.80
44723;DHT22;30451;48.638;10.624;2023-04-15T06:10:45;22.60;45.80
44723;DHT22;30451;48.638;10.624;2023-04-15T06:13:12;22.60;46.30
44723;DHT22;30451;48.638;10.624;2023-04-15T06:15:37;22.60;45.70
44723;DHT22;30451;48.638;10.624;2023-04-15T06:18:03;22.60;45.70
44723;DHT22;30451;48.638;10.624;2023-04-15T06:20:29;22.60;45.70
44723;DHT22;30451;48.638;10.624;2023-04-15T06:22:55;22.60;45.80
44723;DHT22;30451;48.638;10.624;2023-04-15T06:25:21;22.60;45.80
44723;DHT22;30451;48.638;10.624;2023-04-15T06:27:47;22.60;45.80
44723;DHT22;30451;48.638;10.624;2023-04-15T06:30:13;22.60;45.80
44723;DHT22;30451;48.638;10.624;2023-04-15T06:32:38;22.60;45.80
44723;DHT22;30451;48.638;10.624;2023-04-15T06:35:04;22.60;45.80
44723;DHT22;30451;48.638;10.624;2023-04-15T06:37:30;22.50;45.80
44723;DHT22;30451;48.638;10.624;2023-04-15T06:39:57;22.60;45.80
44723;DHT22;30451;48.638;10.624;2023-04-15T06:42:22;22.50;45.80
44723;DHT22;30451;48.638;10.624;2023-04-15T06:44:48;22.50;45.70
44723;DHT22;30451;48.638;10.624;2023-04-15T06:47:14;22.50;45.70
44723;DHT22;30451;48.638;10.624;2023-04-15T06:49:40;22.50;45.70
44723;DHT22;30451;48.638;10.624;2023-04-15T06:52:05;22.50;45.70
44723;DHT22;30451;48.638;10.624;2023-04-15T06:54:31;22.50;45.70
44723;DHT22;30451;48.638;10.624;2023-04-15T06:56:57;22.50;45.70
44723;DHT22;30451;48.638;10.624;2023-04-15T06:59:23;22.50;45.70
44723;DHT22;30451;48.638;10.624;2023-04-15T07:01:48;22.50;45.70
44723;DHT22;30451;48.638;10.624;2023-04-15T07:04:14;22.50;45.70
44723;DHT22;30451;48.638;10.624;2023-04-15T07:06:39;22.50;45.70
44723;DHT22;30451;48.638;10.624;2023-04-15T07:09:06;22.50;45.70
44723;DHT22;30451;48.638;10.624;2023-04-15T07:11:31;22.50;45.80
44723;DHT22;30451;48.638;10.624;2023-04-15T07:13:57;22.50;45.70
44723;DHT22;30451;48.638;10.624;2023-04-15T07:16:23;22.40;45.70
44723;DHT22;30451;48.638;10.624;2023-04-15T07:18:49;22.50;45.70
44723;DHT22;30451;48.638;10.624;2023-04-15T07:21:14;22.50;45.70
44723;DHT22;30451;48.638;10.624;2023-04-15T07:23:41;22.40;45.70
44723;DHT22;30451;48.638;10.624;2023-04-15T07:26:07;22.50;45.70
44723;DHT22;30451;48.638;10.624;2023-04-15T07:28:33;22.50;45.70
44723;DHT22;30451;48.638;10.624;2023-04-15T07:30:58;22.40;45.60
44723;DHT22;30451;48.638;10.624;2023-04-15T07:33:24;22.40;45.50
44723;DHT22;30451;48.638;10.624;2023-04-15T07:35:50;22.40;45.30
44723;DHT22;30451;48.638;10.624;2023-04-15T07:38:16;22.40;45.20
44723;DHT22;30451;48.638;10.624;2023-04-15T07:40:41;22.40;45.30
44723;DHT22;30451;48.638;10.624;2023-04-15T07:43:07;22.40;45.20
44723;DHT22;30451;48.638;10.624;2023-04-15T07:45:33;22.40;45.30
44723;DHT22;30451;48.638;10.624;2023-04-15T07:48:00;22.40;45.30
44723;DHT22;30451;48.638;10.624;2023-04-15T07:50:26;22.40;45.40
44723;DHT22;30451;48.638;10.624;2023-04-15T07:52:52;22.40;45.30
44723;DHT22;30451;48.638;10.624;2023-04-15T07:55:18;22.40;45.40
44723;DHT22;30451;48.638;10.624;2023-04-15T07:57:46;22.40;45.40
44723;DHT22;30451;48.638;10.624;2023-04-15T08:00:12;22.40;45.40
44723;DHT22;30451;48.638;10.624;2023-04-15T08:02:38;22.40;45.40
44723;DHT22;30451;48.638;10.624;2023-04-15T08:05:04;22.40;45.50
44723;DHT22;30451;48.638;10.624;2023-04-15T08:07:30;22.40;45.50
44723;DHT22;30451;48.638;10.624;2023-04-15T08:09:56;22.40;45.50
44723;DHT22;30451;48.638;10.624;2023-04-15T08:12:22;22.40;45.50
44723;DHT22;30451;48.638;10.624;2023-04-15T08:14:52;22.30;45.50
44723;DHT22;30451;48.638;10.624;2023-04-15T08:17:17;22.30;45.50
44723;DHT22;30451;48.638;10.624;2023-04-15T08:19:43;22.30;45.50
44723;DHT22;30451;48.638;10.624;2023-04-15T08:22:09;22.30;45.60
44723;DHT22;30451;48.638;10.624;2023-04-15T08:24:36;22.30;45.60
44723;DHT22;30451;48.638;10.624;2023-04-15T08:27:02;22.30;45.60
44723;DHT22;30451;48.638;10.624;2023-04-15T08:29:33;22.30;45.60
44723;DHT22;30451;48.638;10.624;2023-04-15T08:31:59;22.30;45.60
44723;DHT22;30451;48.638;10.624;2023-04-15T08:34:26;22.30;45.60
44723;DHT22;30451;48.638;10.624;2023-04-15T08:36:52;22.30;45.60
44723;DHT22;30451;48.638;10.624;2023-04-15T08:39:17;22.30;45.60
44723;DHT22;30451;48.638;10.624;2023-04-15T08:44:19;22.20;45.60
44723;DHT22;30451;48.638;10.624;2023-04-15T08:46:45;22.30;45.70
44723;DHT22;30451;48.638;10.624;2023-04-15T08:49:12;22.30;45.70
44723;DHT22;30451;48.638;10.624;2023-04-15T08:51:39;22.30;45.70
44723;DHT22;30451;48.638;10.624;2023-04-15T08:54:07;22.30;45.70
44723;DHT22;30451;48.638;10.624;2023-04-15T08:56:33;22.20;45.60
44723;DHT22;30451;48.638;10.624;2023-04-15T08:59:00;22.20;45.60
44723;DHT22;30451;48.638;10.624;2023-04-15T09:01:26;22.20;45.60
44723;DHT22;30451;48.638;10.624;2023-04-15T09:03:52;22.20;45.60
44723;DHT22;30451;48.638;10.624;2023-04-15T09:06:22;22.20;45.60
44723;DHT22;30451;48.638;10.624;2023-04-15T09:08:48;22.20;45.70
44723;DHT22;30451;48.638;10.624;2023-04-15T09:11:14;22.20;45.70
44723;DHT22;30451;48.638;10.624;2023-04-15T09:13:42;22.20;45.70
44723;DHT22;30451;48.638;10.624;2023-04-15T09:16:07;22.20;45.70
44723;DHT22;30451;48.638;10.624;2023-04-15T09:18:35;22.20;45.70
44723;DHT22;30451;48.638;10.624;2023-04-15T09:21:11;22.20;46.20
44723;DHT22;30451;48.638;10.624;2023-04-15T09:23:40;22.20;45.70
44723;DHT22;30451;48.638;10.624;2023-04-15T09:26:06;22.20;46.20
44723;DHT22;30451;48.638;10.624;2023-04-15T09:28:32;22.20;45.70
44723;DHT22;30451;48.638;10.624;2023-04-15T09:31:05;22.20;45.70
44723;DHT22;30451;48.638;10.624;2023-04-15T09:33:31;22.20;45.70
44723;DHT22;30451;48.638;10.624;2023-04-15T09:36:01;22.20;45.70
44723;DHT22;30451;48.638;10.624;2023-04-15T09:38:27;22.20;45.70
44723;DHT22;30451;48.638;10.624;2023-04-15T09:40:53;22.20;46.20
44723;DHT22;30451;48.638;10.624;2023-04-15T09:43:18;22.10;45.70
44723;DHT22;30451;48.638;10.624;2023-04-15T09:45:52;22.20;45.70
44723;DHT22;30451;48.638;10.624;2023-04-15T09:50:46;22.20;45.70
44723;DHT22;30451;48.638;10.624;2023-04-15T09:53:17;22.20;45.70
44723;DHT22;30451;48.638;10.624;2023-04-15T09:55:52;22.20;45.70
44723;DHT22;30451;48.638;10.624;2023-04-15T09:58:23;22.10;45.70
44723;DHT22;30451;48.638;10.624;2023-04-15T10:00:51;22.10;45.70
44723;DHT22;30451;48.638;10.624;2023-04-15T10:03:24;22.10;45.70
44723;DHT22;30451;48.638;10.624;2023-04-15T10:05:52;22.10;45.70
44723;DHT22;30451;48.638;10.624;2023-04-15T10:08:19;22.10;45.70
44723;DHT22;30451;48.638;10.624;2023-04-15T10:10:47;22.10;45.70
44723;DHT22;30451;48.638;10.624;2023-04-15T10:13:33;22.10;45.70
44723;DHT22;30451;48.638;10.624;2023-04-15T10:16:11;22.10;45.70
44723;DHT22;30451;48.638;10.624;2023-04-15T10:18:42;22.10;45.70
44723;DHT22;30451;48.638;10.624;2023-04-15T10:21:08;22.10;45.80
44723;DHT22;30451;48.638;10.624;2023-04-15T10:23:34;22.20;46.00
44723;DHT22;30451;48.638;10.624;2023-04-15T10:26:02;22.20;46.00
44723;DHT22;30451;48.638;10.624;2023-04-15T10:28:28;22.20;46.00
44723;DHT22;30451;48.638;10.624;2023-04-15T10:30:55;22.30;46.00
44723;DHT22;30451;48.638;10.624;2023-04-15T10:33:23;22.30;45.80
44723;DHT22;30451;48.638;10.624;2023-04-15T10:35:50;22.40;45.80
44723;DHT22;30451;48.638;10.624;2023-04-15T10:41:23;22.60;45.50
44723;DHT22;30451;48.638;10.624;2023-04-15T10:46:24;22.80;45.20
44723;DHT22;30451;48.638;10.624;2023-04-15T10:49:06;22.90;45.10
44723;DHT22;30451;48.638;10.624;2023-04-15T10:51:32;23.00;44.80
44723;DHT22;30451;48.638;10.624;2023-04-15T10:53:59;23.00;45.40
44723;DHT22;30451;48.638;10.624;2023-04-15T10:56:24;23.10;44.80
44723;DHT22;30451;48.638;10.624;2023-04-15T10:58:50;23.20;44.70
44723;DHT22;30451;48.638;10.624;2023-04-15T11:01:19;23.30;44.60
44723;DHT22;30451;48.638;10.624;2023-04-15T11:03:45;23.40;44.40
44723;DHT22;30451;48.638;10.624;2023-04-15T11:06:12;23.40;44.40
44723;DHT22;30451;48.638;10.624;2023-04-15T11:08:58;23.50;44.20
44723;DHT22;30451;48.638;10.624;2023-04-15T11:14:27;23.70;44.00
44723;DHT22;30451;48.638;10.624;2023-04-15T11:16:52;23.80;43.80
44723;DHT22;30451;48.638;10.624;2023-04-15T11:19:18;23.90;43.70
44723;DHT22;30451;48.638;10.624;2023-04-15T11:21:43;24.00;43.50
44723;DHT22;30451;48.638;10.624;2023-04-15T11:24:09;24.10;43.50
44723;DHT22;30451;48.638;10.624;2023-04-15T11:26:35;24.20;43.50
44723;DHT22;30451;48.638;10.624;2023-04-15T11:29:00;24.30;43.30
44723;DHT22;30451;48.638;10.624;2023-04-15T11:31:27;24.30;43.10
44723;DHT22;30451;48.638;10.624;2023-04-15T11:33:57;24.40;43.00
44723;DHT22;30451;48.638;10.624;2023-04-15T11:36:28;24.50;42.90
44723;DHT22;30451;48.638;10.624;2023-04-15T11:38:54;24.50;42.80
44723;DHT22;30451;48.638;10.624;2023-04-15T11:41:21;24.50;42.80
44723;DHT22;30451;48.638;10.624;2023-04-15T11:43:47;24.40;42.70
44723;DHT22;30451;48.638;10.624;2023-04-15T11:46:13;24.40;42.70
44723;DHT22;30451;48.638;10.624;2023-04-15T11:48:42;24.40;42.70
44723;DHT22;30451;48.638;10.624;2023-04-15T11:51:09;24.40;42.70
44723;DHT22;30451;48.638;10.624;2023-04-15T11:53:48;24.40;42.80
44723;DHT22;30451;48.638;10.624;2023-04-15T11:56:19;24.40;42.70
44723;DHT22;30451;48.638;10.624;2023-04-15T11:58:46;24.40;42.80
44723;DHT22;30451;48.638;10.624;2023-04-15T12:01:12;24.30;42.70
44723;DHT22;30451;48.638;10.624;2023-04-15T12:03:47;24.30;42.80
44723;DHT22;30451;48.638;10.624;2023-04-15T12:06:22;24.30;42.80
44723;DHT22;30451;48.638;10.624;2023-04-15T12:11:18;24.50;42.70
44723;DHT22;30451;48.638;10.624;2023-04-15T12:13:46;24.50;42.60
44723;DHT22;30451;48.638;10.624;2023-04-15T12:16:16;24.60;42.60
44723;DHT22;30451;48.638;10.624;2023-04-15T12:18:43;24.70;42.50
44723;DHT22;30451;48.638;10.624;2023-04-15T12:21:09;24.70;42.50
44723;DHT22;30451;48.638;10.624;2023-04-15T12:23:56;24.80;42.30
44723;DHT22;30451;48.638;10.624;2023-04-15T12:26:26;24.90;42.30
44723;DHT22;30451;48.638;10.624;2023-04-15T12:31:25;25.10;42.10
44723;DHT22;30451;48.638;10.624;2023-04-15T12:33:54;25.10;42.00
44723;DHT22;30451;48.638;10.624;2023-04-15T12:36:20;25.20;41.80
44723;DHT22;30451;48.638;10.624;2023-04-15T12:38:45;25.20;41.70
44723;DHT22;30451;48.638;10.624;2023-04-15T12:41:11;25.30;41.70
44723;DHT22;30451;48.638;10.624;2023-04-15T12:43:36;25.20;41.50
44723;DHT22;30451;48.638;10.624;2023-04-15T12:46:02;25.30;41.60
44723;DHT22;30451;48.638;10.624;2023-04-15T12:48:29;25.30;41.50
44723;DHT22;30451;48.638;10.624;2023-04-15T12:50:54;25.30;41.50
44723;DHT22;30451;48.638;10.624;2023-04-15T12:53:20;25.20;41.50
44723;DHT22;30451;48.638;10.624;2023-04-15T12:55:46;25.20;41.50
44723;DHT22;30451;48.638;10.624;2023-04-15T12:58:12;25.20;41.50
44723;DHT22;30451;48.638;10.624;2023-04-15T13:00:38;25.20;41.60
44723;DHT22;30451;48.638;10.624;2023-04-15T13:03:03;25.20;41.50
44723;DHT22;30451;48.638;10.624;2023-04-15T13:05:29;25.20;41.50
44723;DHT22;30451;48.638;10.624;2023-04-15T13:07:55;25.20;41.50
44723;DHT22;30451;48.638;10.624;2023-04-15T13:10:21;25.20;41.60
44723;DHT22;30451;48.638;10.624;2023-04-15T13:12:48;25.10;41.60
44723;DHT22;30451;48.638;10.624;2023-04-15T13:15:18;25.10;41.60
44723;DHT22;30451;48.638;10.624;2023-04-15T13:17:46;25.10;41.60
44723;DHT22;30451;48.638;10.624;2023-04-15T13:20:12;25.10;41.60
44723;DHT22;30451;48.638;10.624;2023-04-15T13:22:38;25.10;41.60
44723;DHT22;30451;48.638;10.624;2023-04-15T13:25:05;25.10;41.60
44723;DHT22;30451;48.638;10.624;2023-04-15T13:27:31;25.10;41.70
44723;DHT22;30451;48.638;10.624;2023-04-15T13:29:58;25.10;41.70
44723;DHT22;30451;48.638;10.624;2023-04-15T13:32:24;25.00;41.70
44723;DHT22;30451;48.638;10.624;2023-04-15T13:34:49;25.00;41.80
44723;DHT22;30451;48.638;10.624;2023-04-15T13:37:15;25.00;41.80
44723;DHT22;30451;48.638;10.624;2023-04-15T13:39:41;25.00;41.90
44723;DHT22;30451;48.638;10.624;2023-04-15T13:42:07;24.90;41.90
44723;DHT22;30451;48.638;10.624;2023-04-15T13:44:32;24.90;41.90
44723;DHT22;30451;48.638;10.624;2023-04-15T13:46:58;24.90;41.90
44723;DHT22;30451;48.638;10.624;2023-04-15T13:49:23;24.80;41.90
44723;DHT22;30451;48.638;10.624;2023-04-15T13:51:50;24.80;41.90
44723;DHT22;30451;48.638;10.624;2023-04-15T13:54:15;24.80;42.00
44723;DHT22;30451;48.638;10.624;2023-04-15T13:56:41;24.80;42.00
44723;DHT22;30451;48.638;10.624;2023-04-15T13:59:07;24.70;42.10
44723;DHT22;30451;48.638;10.624;2023-04-15T14:01:34;24.70;42.10
44723;DHT22;30451;48.638;10.624;2023-04-15T14:04:00;24.70;42.20
44723;DHT22;30451;48.638;10.624;2023-04-15T14:06:26;24.70;42.20
44723;DHT22;30451;48.638;10.624;2023-04-15T14:08:52;24.60;42.20
44723;DHT22;30451;48.638;10.624;2023-04-15T14:11:18;24.60;42.30
44723;DHT22;30451;48.638;10.624;2023-04-15T14:13:43;24.60;42.30
44723;DHT22;30451;48.638;10.624;2023-04-15T14:16:09;24.60;42.40
44723;DHT22;30451;48.638;10.624;2023-04-15T14:18:35;24.50;42.40
44723;DHT22;30451;48.638;10.624;2023-04-15T14:21:01;24.50;42.40
44723;DHT22;30451;48.638;10.624;2023-04-15T14:23:28;24.40;42.50
44723;DHT22;30451;48.638;10.624;2023-04-15T14:25:54;24.40;42.50
44723;DHT22;30451;48.638;10.624;2023-04-15T14:28:19;24.40;42.60
44723;DHT22;30451;48.638;10.624;2023-04-15T14:30:45;24.40;42.60
44723;DHT22;30451;48.638;10.624;2023-04-15T14:33:11;24.40;42.70
44723;DHT22;30451;48.638;10.624;2023-04-15T14:35:36;24.30;42.60
44723;DHT22;30451;48.638;10.624;2023-04-15T14:38:02;24.30;42.70
44723;DHT22;30451;48.638;10.624;2023-04-15T14:40:28;24.30;42.80
44723;DHT22;30451;48.638;10.624;2023-04-15T14:42:54;24.30;42.90
44723;DHT22;30451;48.638;10.624;2023-04-15T14:45:19;24.20;42.90
44723;DHT22;30451;48.638;10.624;2023-04-15T14:47:45;24.20;43.00
44723;DHT22;30451;48.638;10.624;2023-04-15T14:50:11;24.20;43.00
44723;DHT22;30451;48.638;10.624;2023-04-15T14:52:37;24.20;43.00
44723;DHT22;30451;48.638;10.624;2023-04-15T14:55:05;24.20;43.10
44723;DHT22;30451;48.638;10.624;2023-04-15T14:57:31;24.10;43.00
44723;DHT22;30451;48.638;10.624;2023-04-15T14:59:56;24.10;43.60
44723;DHT22;30451;48.638;10.624;2023-04-15T15:02:22;24.10;43.10
44723;DHT22;30451;48.638;10.624;2023-04-15T15:04:48;24.10;43.20
44723;DHT22;30451;48.638;10.624;2023-04-15T15:07:13;24.10;43.20
44723;DHT22;30451;48.638;10.624;2023-04-15T15:09:39;24.10;43.30
44723;DHT22;30451;48.638;10.624;2023-04-15T15:12:06;24.00;43.30
44723;DHT22;30451;48.638;10.624;2023-04-15T15:14:31;24.00;43.40
44723;DHT22;30451;48.638;10.624;2023-04-15T15:16:57;24.00;43.40
44723;DHT22;30451;48.638;10.624;2023-04-15T15:19:22;24.00;43.50
44723;DHT22;30451;48.638;10.624;2023-04-15T15:21:49;23.90;43.40
44723;DHT22;30451;48.638;10.624;2023-04-15T15:24:14;23.90;43.50
44723;DHT22;30451;48.638;10.624;2023-04-15T15:26:40;23.90;44.10
44723;DHT22;30451;48.638;10.624;2023-04-15T15:29:06;23.90;43.80